KAKH

Gastonia Municipal Airport

Gastonia, North Carolina, USA
METAR KAKH 161233Z AUTO 25003KT 3SM BR FEW002 05/03 A2997 RMK AO2 T00500028
Observed Flight Rules
Dec-16 @ 12:33 UTC (26 minutes ago) Marginal Visual Flight Rules
Wind Visibility Clouds Conditions
250° at 3 knots 3 miles
  • Few at 200' AGL
  • Mist
Temperatures Readings
Current 5°C / 41°F
Dewpoint 3°C / 37°F
Humidity 87%
Altimeter 29.97" Hg
Pressure 1015 hPa
Elevation 243
METAR KAKH 161233Z AUTO 25003KT 3SM BR FEW002 05/03 A2997 RMK AO2 T00500028
Observed Flight Rules
Dec-16 @ 12:33 UTC
(26 minutes ago)
MVFR
Wind Visibility
250° at 3 knots 3 miles
Clouds
  • Few at 200' AGL
Conditions
  • Mist
Temperature Dewpoint
5°C / 41°F 3°C / 37°F
Humidity Altimeter Pressure
87% 29.97" Hg 1015 hPa